createdAt,value
2018-05-10T00:01:53.534Z,12.58
2018-05-10T00:04:19.560Z,12.55
2018-05-10T00:06:45.628Z,12.57
2018-05-10T00:09:11.660Z,12.51
2018-05-10T00:11:37.676Z,12.51
2018-05-10T00:14:03.703Z,12.52
2018-05-10T00:16:29.719Z,12.48
2018-05-10T00:18:55.757Z,12.45
2018-05-10T00:21:21.771Z,12.46
2018-05-10T00:23:47.783Z,12.46
2018-05-10T00:26:13.841Z,12.42
2018-05-10T00:28:39.951Z,12.38
2018-05-10T00:31:05.958Z,12.40
2018-05-10T00:33:32.015Z,12.37
2018-05-10T00:35:58.060Z,12.41
2018-05-10T00:38:24.141Z,12.37
2018-05-10T00:40:50.208Z,12.26
2018-05-10T00:43:16.230Z,12.23
2018-05-10T00:45:42.372Z,12.20
2018-05-10T00:48:08.504Z,12.24
2018-05-10T00:50:34.684Z,12.27
2018-05-10T00:53:00.825Z,12.28
2018-05-10T00:55:26.865Z,12.32
2018-05-10T00:57:52.894Z,12.42
2018-05-10T01:00:19.043Z,12.40
2018-05-10T01:02:45.162Z,12.47
2018-05-10T01:05:11.182Z,12.43
2018-05-10T01:07:37.189Z,12.43
2018-05-10T01:10:03.249Z,12.39
2018-05-10T01:12:29.280Z,12.29
2018-05-10T01:14:55.321Z,12.33
2018-05-10T01:17:21.422Z,12.38
2018-05-10T01:19:47.501Z,12.35
2018-05-10T01:22:13.584Z,12.37
2018-05-10T01:24:39.591Z,12.34
2018-05-10T01:27:05.607Z,12.36
2018-05-10T01:29:31.637Z,12.35
2018-05-10T01:31:57.656Z,12.36
2018-05-10T01:34:23.680Z,12.36
2018-05-10T01:36:49.696Z,12.38
2018-05-10T01:39:15.720Z,12.39
2018-05-10T01:41:41.759Z,12.41
2018-05-10T01:44:07.797Z,12.41
2018-05-10T01:46:33.795Z,12.33
2018-05-10T01:48:59.856Z,12.33
2018-05-10T01:51:25.870Z,12.30
2018-05-10T01:53:51.898Z,12.23
2018-05-10T01:56:17.930Z,12.28
2018-05-10T01:58:43.916Z,12.26
2018-05-10T02:01:09.931Z,12.23
2018-05-10T02:03:35.956Z,12.37
2018-05-10T02:06:02.026Z,12.37
2018-05-10T02:08:28.061Z,12.40
2018-05-10T02:10:54.052Z,12.45
2018-05-10T02:13:20.084Z,12.42
2018-05-10T02:15:46.201Z,12.43
2018-05-10T02:18:12.274Z,12.44
2018-05-10T02:20:38.299Z,12.45
2018-05-10T02:23:04.285Z,12.36
2018-05-10T02:25:31.297Z,12.42
2018-05-10T02:27:57.572Z,12.52
2018-05-10T02:30:23.597Z,12.45
2018-05-10T02:32:49.661Z,12.46
2018-05-10T02:35:15.705Z,12.39
2018-05-10T02:37:41.681Z,12.42
2018-05-10T02:40:07.739Z,12.42
2018-05-10T02:42:33.753Z,12.44
2018-05-10T02:44:59.829Z,12.37
2018-05-10T02:47:25.810Z,12.37
2018-05-10T02:49:51.849Z,12.37
2018-05-10T02:52:17.857Z,12.40
2018-05-10T02:54:43.899Z,12.38
2018-05-10T02:57:09.970Z,12.40
2018-05-10T02:59:35.972Z,12.40
2018-05-10T03:02:01.998Z,12.42
2018-05-10T03:04:28.020Z,12.31
2018-05-10T03:06:54.076Z,12.33
2018-05-10T03:09:20.117Z,12.32
2018-05-10T03:11:46.161Z,12.27
2018-05-10T03:14:12.357Z,12.32
2018-05-10T03:16:38.510Z,12.31
2018-05-10T03:19:04.540Z,12.31
2018-05-10T03:21:30.572Z,12.36
2018-05-10T03:23:56.660Z,12.41
2018-05-10T03:26:23.626Z,12.36
2018-05-10T03:28:49.636Z,12.31
2018-05-10T03:31:15.759Z,12.36
2018-05-10T03:33:41.766Z,12.36
2018-05-10T03:36:07.771Z,12.34
2018-05-10T03:38:33.813Z,12.27
2018-05-10T03:40:59.845Z,12.30
2018-05-10T03:43:25.931Z,12.28
2018-05-10T03:45:51.970Z,12.32
2018-05-10T03:48:18.070Z,12.33
2018-05-10T03:50:44.201Z,12.37
2018-05-10T03:53:10.358Z,12.30
2018-05-10T03:55:36.505Z,12.24
2018-05-10T03:58:02.532Z,12.30
2018-05-10T04:00:28.566Z,12.33
2018-05-10T04:06:25.530Z,12.18
2018-05-10T04:09:03.915Z,12.21
2018-05-10T04:11:30.033Z,12.23
2018-05-10T04:13:56.056Z,12.17
2018-05-10T04:16:22.092Z,12.16
2018-05-10T04:18:50.181Z,12.13
2018-05-10T04:21:16.453Z,12.03
2018-05-10T04:23:42.554Z,12.07
2018-05-10T04:26:08.625Z,12.11
2018-05-10T04:28:34.650Z,12.06
2018-05-10T04:31:00.777Z,12.11
2018-05-10T04:33:26.918Z,12.11
2018-05-10T04:35:53.222Z,12.08
2018-05-10T04:38:19.205Z,12.14
2018-05-10T04:40:45.246Z,12.25
2018-05-10T04:43:11.403Z,12.26
2018-05-10T04:45:38.068Z,12.35
2018-05-10T04:48:04.099Z,12.36
2018-05-10T04:50:30.105Z,12.46
2018-05-10T04:52:56.961Z,12.56
2018-05-10T04:55:22.978Z,12.55
2018-05-10T04:57:49.918Z,12.66
2018-05-10T05:00:15.993Z,12.75
2018-05-10T05:02:42.033Z,12.72
2018-05-10T05:05:08.104Z,12.79
2018-05-10T05:07:34.199Z,12.78
2018-05-10T05:10:00.329Z,12.75
2018-05-10T05:12:26.370Z,12.76
2018-05-10T05:14:52.428Z,12.75
2018-05-10T05:17:18.465Z,12.77
2018-05-10T05:19:44.574Z,12.81
2018-05-10T05:22:10.700Z,12.94
2018-05-10T05:24:36.743Z,12.91
2018-05-10T05:27:03.120Z,12.86
2018-05-10T05:29:29.192Z,12.80
2018-05-10T05:31:55.261Z,12.91
2018-05-10T05:34:21.271Z,12.88
2018-05-10T05:36:47.292Z,12.96
2018-05-10T05:39:13.310Z,13.03
2018-05-10T05:41:39.349Z,13.01
2018-05-10T05:44:05.394Z,12.99
2018-05-10T05:46:31.476Z,13.08
2018-05-10T05:48:57.540Z,13.08
2018-05-10T05:51:23.567Z,13.20
2018-05-10T05:53:49.595Z,13.22
2018-05-10T05:56:15.656Z,13.47
2018-05-10T05:58:41.692Z,13.48
2018-05-10T06:01:07.740Z,13.57
2018-05-10T06:03:33.780Z,13.60
2018-05-10T06:05:59.813Z,13.58
2018-05-10T06:08:25.824Z,13.58
2018-05-10T06:10:51.854Z,13.68
2018-05-10T06:13:17.913Z,13.84
2018-05-10T06:15:43.978Z,13.81
2018-05-10T06:18:09.995Z,13.93
2018-05-10T06:20:36.028Z,13.88
2018-05-10T06:23:02.127Z,13.90
2018-05-10T06:25:28.209Z,13.86
2018-05-10T06:27:54.735Z,13.73
2018-05-10T06:30:20.807Z,13.78
2018-05-10T06:32:46.913Z,13.89
2018-05-10T06:35:12.985Z,13.96
2018-05-10T06:37:39.005Z,13.88
2018-05-10T06:40:05.085Z,14.01
2018-05-10T06:42:31.160Z,14.11
2018-05-10T06:44:57.456Z,14.14
2018-05-10T06:47:23.523Z,14.35
2018-05-10T06:49:49.961Z,14.43
2018-05-10T06:52:16.040Z,14.54
2018-05-10T06:54:42.143Z,14.46
2018-05-10T06:57:08.112Z,14.64
2018-05-10T06:59:34.165Z,14.58
2018-05-10T07:02:00.266Z,14.68
2018-05-10T07:04:26.362Z,14.70
2018-05-10T07:09:25.642Z,14.87
2018-05-10T07:11:51.732Z,14.83
2018-05-10T07:14:17.798Z,14.75
2018-05-10T07:16:43.940Z,14.74
2018-05-10T07:19:09.967Z,14.73
2018-05-10T07:21:36.000Z,14.87
2018-05-10T07:24:02.009Z,15.00
2018-05-10T07:26:28.037Z,15.30
2018-05-10T07:28:54.041Z,14.94
2018-05-10T07:31:20.764Z,15.05
2018-05-10T07:33:46.889Z,15.10
2018-05-10T07:36:13.017Z,14.93
2018-05-10T07:38:39.115Z,14.46
2018-05-10T07:41:05.162Z,14.41
2018-05-10T07:43:31.300Z,14.19
2018-05-10T07:45:57.561Z,14.27
2018-05-10T07:48:23.568Z,14.38
2018-05-10T07:50:49.578Z,14.39
2018-05-10T07:53:16.193Z,14.12
2018-05-10T07:55:42.199Z,14.30
2018-05-10T07:58:08.203Z,14.46
2018-05-10T08:00:34.214Z,14.26
2018-05-10T08:03:00.333Z,14.47
2018-05-10T08:05:26.350Z,14.59
2018-05-10T08:07:52.649Z,14.79
2018-05-10T08:10:18.732Z,14.88
2018-05-10T08:12:44.908Z,15.36
2018-05-10T08:15:12.250Z,15.22
2018-05-10T08:17:38.590Z,15.29
2018-05-10T08:20:04.694Z,15.11
2018-05-10T08:22:30.967Z,14.73
2018-05-10T08:24:57.372Z,14.67
2018-05-10T08:27:23.465Z,14.46
2018-05-10T08:29:49.568Z,14.58
2018-05-10T08:32:15.570Z,14.33
2018-05-10T08:34:41.614Z,14.29
2018-05-10T08:37:07.631Z,14.11
2018-05-10T08:39:33.667Z,14.13
2018-05-10T08:41:59.712Z,14.22
2018-05-10T08:44:25.789Z,14.56
2018-05-10T08:46:51.828Z,14.68
2018-05-10T08:49:17.905Z,15.03
2018-05-10T08:51:43.992Z,15.11
2018-05-10T08:54:10.013Z,15.02
2018-05-10T08:56:36.139Z,14.97
2018-05-10T08:59:02.226Z,15.05
2018-05-10T09:01:28.260Z,14.97
2018-05-10T09:03:54.529Z,15.12
2018-05-10T09:06:20.554Z,14.99
2018-05-10T09:08:47.128Z,15.15
2018-05-10T09:11:13.221Z,15.25
2018-05-10T09:13:39.462Z,15.66
2018-05-10T09:16:05.548Z,15.99
2018-05-10T09:18:31.649Z,16.73
2018-05-10T09:20:57.701Z,16.74
2018-05-10T09:23:23.745Z,16.73
2018-05-10T09:25:49.767Z,16.49
2018-05-10T09:28:15.774Z,16.05
2018-05-10T09:30:41.837Z,16.35
2018-05-10T09:33:07.934Z,16.14
2018-05-10T09:35:33.954Z,15.61
2018-05-10T09:38:00.003Z,15.81
2018-05-10T09:40:26.065Z,16.05
2018-05-10T09:42:52.124Z,16.46
2018-05-10T09:45:18.164Z,16.71
2018-05-10T09:47:44.188Z,17.13
2018-05-10T09:50:10.265Z,17.49
2018-05-10T09:52:36.349Z,17.45
2018-05-10T09:55:02.410Z,17.36
2018-05-10T09:57:28.566Z,17.91
2018-05-10T09:59:54.778Z,17.99
2018-05-10T10:02:20.772Z,18.07
2018-05-10T10:04:46.821Z,18.76
2018-05-10T10:07:12.921Z,19.59
2018-05-10T10:09:39.003Z,20.57
2018-05-10T10:12:05.170Z,21.47
2018-05-10T10:14:31.200Z,21.37
2018-05-10T10:16:57.325Z,22.37
2018-05-10T10:19:23.380Z,23.00
2018-05-10T10:21:49.404Z,23.92
2018-05-10T10:24:15.450Z,23.84
2018-05-10T10:26:41.497Z,23.50
2018-05-10T10:29:07.546Z,24.13
2018-05-10T10:31:33.557Z,22.97
2018-05-10T10:33:59.564Z,22.60
2018-05-10T10:36:25.592Z,23.55
2018-05-10T10:38:51.600Z,22.13
2018-05-10T10:41:17.644Z,21.36
2018-05-10T10:43:43.648Z,20.70
2018-05-10T10:46:09.704Z,20.66
2018-05-10T10:48:35.712Z,19.99
2018-05-10T10:51:01.769Z,19.75
2018-05-10T10:53:27.791Z,19.50
2018-05-10T10:55:53.802Z,19.58
2018-05-10T10:58:19.833Z,20.13
2018-05-10T11:00:45.889Z,19.84
2018-05-10T11:03:11.923Z,19.83
2018-05-10T11:05:37.997Z,20.58
2018-05-10T11:08:04.008Z,20.75
2018-05-10T11:10:30.026Z,21.15
2018-05-10T11:12:56.129Z,21.54
2018-05-10T11:15:22.209Z,21.14
2018-05-10T11:17:48.313Z,20.80
2018-05-10T11:20:14.336Z,20.83
2018-05-10T11:22:41.444Z,20.94
2018-05-10T11:25:07.506Z,21.00
2018-05-10T11:27:33.532Z,20.86
2018-05-10T11:29:59.600Z,21.51
2018-05-10T11:32:25.633Z,22.68
2018-05-10T11:34:51.687Z,23.57
2018-05-10T11:37:17.685Z,24.40
2018-05-10T11:39:43.702Z,24.70
2018-05-10T11:42:09.708Z,24.90
2018-05-10T11:44:35.848Z,25.99
2018-05-10T11:47:01.740Z,26.38
2018-05-10T11:49:27.737Z,26.60
2018-05-10T11:51:53.767Z,26.65
2018-05-10T11:54:19.790Z,26.63
2018-05-10T11:56:45.771Z,26.85
2018-05-10T11:59:11.794Z,26.71
2018-05-10T12:01:37.885Z,26.57
2018-05-10T12:04:03.908Z,27.08
2018-05-10T12:06:29.973Z,27.70
2018-05-10T12:08:56.043Z,27.81
2018-05-10T12:11:22.075Z,27.49
2018-05-10T12:13:48.101Z,26.58
2018-05-10T12:16:14.161Z,27.68
2018-05-10T12:18:40.164Z,28.35
2018-05-10T12:21:06.170Z,27.85
2018-05-10T12:23:32.196Z,27.79
2018-05-10T12:25:58.198Z,27.89
2018-05-10T12:28:24.228Z,27.97
2018-05-10T12:30:50.281Z,28.14
2018-05-10T12:33:16.359Z,28.72
2018-05-10T12:35:42.380Z,28.70
2018-05-10T12:38:08.397Z,28.64
2018-05-10T12:40:34.549Z,28.35
2018-05-10T12:43:00.591Z,27.61
2018-05-10T12:45:26.625Z,28.00
2018-05-10T12:47:52.688Z,27.54
2018-05-10T12:50:18.773Z,26.44
2018-05-10T12:52:44.806Z,26.13
2018-05-10T12:55:10.816Z,26.37
2018-05-10T12:57:37.292Z,25.49
2018-05-10T13:00:03.308Z,25.60
2018-05-10T13:02:29.380Z,25.36
2018-05-10T13:04:55.386Z,25.49
2018-05-10T13:07:21.397Z,24.76
2018-05-10T13:09:47.497Z,24.63
2018-05-10T13:12:13.540Z,25.11
2018-05-10T13:14:39.566Z,24.56
2018-05-10T13:17:05.584Z,25.12
2018-05-10T13:19:31.622Z,26.16
2018-05-10T13:21:57.640Z,27.13
2018-05-10T13:24:23.742Z,27.29
2018-05-10T13:26:49.768Z,25.92
2018-05-10T13:29:15.808Z,25.78
2018-05-10T13:31:41.790Z,25.33
2018-05-10T13:34:07.844Z,25.20
2018-05-10T13:36:33.861Z,26.79
2018-05-10T13:38:59.947Z,26.29
2018-05-10T13:41:25.961Z,25.56
2018-05-10T13:43:52.001Z,25.22
2018-05-10T13:46:18.013Z,24.45
2018-05-10T13:48:44.021Z,25.61
2018-05-10T13:51:10.032Z,25.89
2018-05-10T13:53:36.185Z,26.98
2018-05-10T13:56:02.242Z,26.27
2018-05-10T13:58:28.300Z,25.16
2018-05-10T14:00:54.433Z,25.55
2018-05-10T14:03:20.567Z,25.21
2018-05-10T14:05:46.606Z,25.23
2018-05-10T14:08:12.761Z,24.60
2018-05-10T14:10:38.934Z,25.04
2018-05-10T14:13:05.100Z,24.48
2018-05-10T14:15:31.284Z,23.49
2018-05-10T14:17:57.523Z,23.22
2018-05-10T14:20:23.545Z,23.53
2018-05-10T14:22:49.669Z,22.64
2018-05-10T14:25:15.815Z,22.86
2018-05-10T14:27:41.839Z,21.91
2018-05-10T14:30:07.851Z,22.77
2018-05-10T14:32:33.941Z,21.82
2018-05-10T14:35:00.006Z,21.14
2018-05-10T14:37:25.957Z,20.37
2018-05-10T14:39:51.978Z,19.98
2018-05-10T14:42:18.048Z,19.37
2018-05-10T14:44:44.181Z,19.02
2018-05-10T14:47:10.226Z,18.97
2018-05-10T14:49:36.378Z,18.42
2018-05-10T14:52:02.721Z,18.09
2018-05-10T14:54:28.781Z,18.14
2018-05-10T14:56:54.837Z,17.41
2018-05-10T14:59:21.018Z,17.05
2018-05-10T15:01:47.239Z,16.38
2018-05-10T15:04:13.472Z,16.16
2018-05-10T15:06:39.611Z,16.36
2018-05-10T15:09:05.806Z,16.23
2018-05-10T15:11:31.875Z,16.02
2018-05-10T15:13:58.136Z,15.53
2018-05-10T15:16:24.182Z,15.69
2018-05-10T15:18:50.224Z,15.73
2018-05-10T15:21:16.265Z,15.79
2018-05-10T15:23:42.360Z,15.76
2018-05-10T15:26:08.358Z,15.77
2018-05-10T15:28:34.492Z,15.73
2018-05-10T15:31:00.662Z,15.66
2018-05-10T15:33:26.829Z,15.57
2018-05-10T15:35:52.855Z,15.96
2018-05-10T15:38:19.008Z,16.01
2018-05-10T15:40:45.243Z,15.92
2018-05-10T15:43:11.557Z,15.83
2018-05-10T15:45:37.680Z,15.92
2018-05-10T15:48:03.757Z,15.81
2018-05-10T15:50:29.865Z,16.04
2018-05-10T15:52:55.891Z,16.11
2018-05-10T15:55:21.930Z,16.09
2018-05-10T15:57:47.951Z,16.00
2018-05-10T16:00:13.999Z,15.81
2018-05-10T16:02:40.069Z,15.98
2018-05-10T16:05:06.223Z,16.48
2018-05-10T16:07:32.258Z,17.23
2018-05-10T16:09:58.317Z,16.81
2018-05-10T16:12:24.324Z,16.92
2018-05-10T16:14:50.373Z,17.31
2018-05-10T16:17:16.486Z,17.63
2018-05-10T16:19:42.622Z,17.59
2018-05-10T16:22:08.790Z,17.08
2018-05-10T16:24:34.839Z,16.83
2018-05-10T16:27:00.925Z,16.56
2018-05-10T16:29:27.030Z,16.31
2018-05-10T16:31:53.188Z,16.24
2018-05-10T16:34:19.222Z,16.22
2018-05-10T16:36:45.255Z,16.57
2018-05-10T16:39:11.431Z,16.59
2018-05-10T16:41:44.369Z,16.32
2018-05-10T16:44:10.431Z,16.28
2018-05-10T16:46:36.521Z,16.05
2018-05-10T16:49:02.628Z,16.05
2018-05-10T16:51:28.633Z,16.02
2018-05-10T16:53:54.812Z,16.13
2018-05-10T16:56:20.921Z,16.30
2018-05-10T16:58:46.930Z,16.44
2018-05-10T17:01:12.941Z,16.52
2018-05-10T17:03:39.108Z,16.47
2018-05-10T17:06:05.440Z,16.00
2018-05-10T17:08:31.518Z,15.87
2018-05-10T17:10:57.552Z,15.60
2018-05-10T17:13:23.581Z,15.53
2018-05-10T17:15:49.697Z,15.04
2018-05-10T17:18:15.761Z,15.08
2018-05-10T17:20:41.823Z,15.03
2018-05-10T17:23:07.875Z,14.87
2018-05-10T17:25:33.938Z,14.81
2018-05-10T17:28:00.035Z,14.69
2018-05-10T17:30:26.091Z,14.61
2018-05-10T17:32:52.256Z,14.55
2018-05-10T17:35:18.505Z,14.51
2018-05-10T17:37:44.525Z,14.40
2018-05-10T17:40:10.643Z,14.33
2018-05-10T17:42:36.831Z,14.15
2018-05-10T17:45:02.980Z,14.26
2018-05-10T17:47:29.196Z,13.96
2018-05-10T17:49:55.365Z,13.96
2018-05-10T17:52:21.413Z,13.97
2018-05-10T17:54:47.497Z,13.82
2018-05-10T17:57:13.603Z,13.73
2018-05-10T17:59:39.620Z,13.81
2018-05-10T18:02:05.675Z,13.70
2018-05-10T18:04:31.704Z,13.82
2018-05-10T18:06:57.718Z,13.66
2018-05-10T18:09:23.766Z,13.71
2018-05-10T18:11:49.775Z,13.57
2018-05-10T18:14:15.883Z,13.58
2018-05-10T18:16:41.969Z,13.45
2018-05-10T18:19:08.023Z,13.52
2018-05-10T18:21:34.070Z,13.46
2018-05-10T18:24:00.142Z,13.46
2018-05-10T18:26:26.192Z,13.35
2018-05-10T18:28:52.230Z,13.34
2018-05-10T18:31:18.251Z,13.21
2018-05-10T18:33:44.266Z,13.10
2018-05-10T18:36:10.376Z,13.07
2018-05-10T18:38:36.445Z,13.05
2018-05-10T18:41:02.572Z,13.03
2018-05-10T18:43:29.274Z,13.11
2018-05-10T18:45:55.326Z,12.96
2018-05-10T18:48:21.475Z,12.80
2018-05-10T18:50:47.514Z,12.78
2018-05-10T18:53:13.632Z,12.73
2018-05-10T18:55:39.666Z,12.68
2018-05-10T18:58:05.714Z,12.59
2018-05-10T19:00:31.778Z,12.48
2018-05-10T19:02:57.816Z,12.40
2018-05-10T19:05:23.856Z,12.33
2018-05-10T19:07:49.997Z,12.28
2018-05-10T19:10:16.396Z,12.25
2018-05-10T19:12:42.666Z,12.20
2018-05-10T19:15:08.895Z,12.08
2018-05-10T19:17:34.921Z,12.07
2018-05-10T19:20:01.108Z,11.94
2018-05-10T19:22:27.185Z,11.98
2018-05-10T19:24:53.292Z,11.92
2018-05-10T19:27:19.380Z,11.84
2018-05-10T19:29:45.425Z,11.72
2018-05-10T19:32:11.589Z,11.65
2018-05-10T19:34:37.812Z,11.58
2018-05-10T19:37:03.977Z,11.48
2018-05-10T19:39:30.026Z,11.44
2018-05-10T19:41:56.126Z,11.35
2018-05-10T19:44:22.210Z,11.30
2018-05-10T19:46:48.316Z,11.28
2018-05-10T19:49:14.353Z,11.25
2018-05-10T19:51:40.609Z,11.24
2018-05-10T19:54:06.671Z,11.18
2018-05-10T19:56:32.803Z,11.10
2018-05-10T19:58:58.919Z,10.99
2018-05-10T20:01:25.087Z,11.01
2018-05-10T20:03:51.952Z,10.99
2018-05-10T20:06:18.048Z,11.01
2018-05-10T20:08:44.181Z,10.97
2018-05-10T20:11:10.258Z,10.90
2018-05-10T20:13:36.310Z,10.94
2018-05-10T20:16:02.361Z,10.84
2018-05-10T20:18:28.928Z,10.79
2018-05-10T20:20:55.034Z,10.73
2018-05-10T20:23:21.140Z,10.68
2018-05-10T20:25:47.196Z,10.68
2018-05-10T20:28:13.456Z,10.69
2018-05-10T20:30:39.586Z,10.62
2018-05-10T20:33:05.621Z,10.66
2018-05-10T20:35:31.650Z,10.60
2018-05-10T20:37:57.689Z,10.54
2018-05-10T20:40:23.955Z,10.40
2018-05-10T20:42:50.020Z,10.37
2018-05-10T20:45:16.056Z,10.40
2018-05-10T20:47:42.067Z,10.28
2018-05-10T20:50:08.358Z,10.33
2018-05-10T20:52:34.403Z,10.27
2018-05-10T20:55:00.568Z,10.26
2018-05-10T20:57:26.627Z,10.26
2018-05-10T20:59:52.768Z,10.24
2018-05-10T21:02:18.803Z,10.18
2018-05-10T21:04:44.808Z,10.16
2018-05-10T21:07:11.841Z,10.16
2018-05-10T21:09:37.864Z,10.06
2018-05-10T21:12:04.133Z,10.11
2018-05-10T21:14:30.219Z,10.04
2018-05-10T21:16:56.257Z,10.02
2018-05-10T21:19:22.297Z,10.03
2018-05-10T21:21:48.348Z,9.96
2018-05-10T21:24:14.398Z,9.93
2018-05-10T21:26:40.449Z,9.82
2018-05-10T21:29:06.492Z,9.81
2018-05-10T21:31:32.625Z,9.83
2018-05-10T21:33:58.732Z,9.82
2018-05-10T21:36:24.706Z,9.72
2018-05-10T21:38:51.553Z,9.67
2018-05-10T21:41:17.651Z,9.67
2018-05-10T21:43:43.673Z,9.63
2018-05-10T21:46:09.757Z,9.60
2018-05-10T21:48:35.767Z,9.59
2018-05-10T21:51:01.787Z,9.55
2018-05-10T21:53:27.840Z,9.50
2018-05-10T21:55:53.925Z,9.50
2018-05-10T21:58:19.940Z,9.47
2018-05-10T22:00:45.970Z,9.43
2018-05-10T22:03:12.002Z,9.45
2018-05-10T22:05:38.010Z,9.43
2018-05-10T22:08:04.829Z,9.38
2018-05-10T22:10:30.887Z,9.41
2018-05-10T22:12:57.969Z,9.36
2018-05-10T22:15:23.971Z,9.35
2018-05-10T22:17:49.997Z,9.33
2018-05-10T22:20:16.003Z,9.31
2018-05-10T22:22:42.100Z,9.27
2018-05-10T22:25:08.078Z,9.24
2018-05-10T22:27:34.094Z,9.23
2018-05-10T22:30:00.156Z,9.21
2018-05-10T22:32:26.126Z,9.17
2018-05-10T22:34:52.168Z,9.16
2018-05-10T22:37:18.264Z,9.11
2018-05-10T22:39:44.299Z,9.12
2018-05-10T22:42:10.331Z,9.05
2018-05-10T22:44:36.359Z,9.02
2018-05-10T22:47:02.385Z,9.01
2018-05-10T22:49:28.443Z,9.03
2018-05-10T22:51:54.472Z,9.01
2018-05-10T22:54:20.508Z,8.95
2018-05-10T22:56:46.537Z,8.98
2018-05-10T22:59:12.570Z,8.94
2018-05-10T23:01:38.669Z,8.94
2018-05-10T23:04:04.720Z,8.89
2018-05-10T23:06:30.792Z,8.86
2018-05-10T23:08:56.903Z,8.87
2018-05-10T23:11:22.962Z,8.85
2018-05-10T23:13:48.992Z,8.86
2018-05-10T23:16:15.016Z,8.83
2018-05-10T23:18:41.158Z,8.78
2018-05-10T23:21:07.290Z,8.75
2018-05-10T23:23:33.402Z,8.75
2018-05-10T23:25:59.455Z,8.73
2018-05-10T23:28:25.485Z,8.71
2018-05-10T23:30:51.637Z,8.70
2018-05-10T23:33:17.670Z,8.66
2018-05-10T23:35:43.710Z,8.65
2018-05-10T23:38:09.757Z,8.63
2018-05-10T23:40:35.772Z,8.62
2018-05-10T23:43:01.796Z,8.59
2018-05-10T23:45:27.826Z,8.60
2018-05-10T23:47:53.847Z,8.57
2018-05-10T23:50:19.860Z,8.56
2018-05-10T23:52:45.881Z,8.49
2018-05-10T23:55:11.991Z,8.50
2018-05-10T23:57:38.043Z,8.46
